Terminal Aerodrome Forecast
Issued by NWS Cleveland, OH

Home | Current Version | Previous Version | Text Only | Print | Product List | Glossary On
Versions: 1 2 3 4 5 6 7 8 9 10 11 12 13 14 15 16
795
FTUS41 KCLE 260522
TAFYNG
TAF
KYNG 260522Z 2606/2706 27012G20KT P6SM -SHSN SCT025 OVC040
      TEMPO 2606/2608 3SM -SN BKN025
     FM260800 27010KT P6SM OVC025
     FM261700 24010KT P6SM BKN035
     FM262000 22010KT P6SM SCT035=

USA.gov is the U.S. government's official web portal to all federal, state and local government web resources and services.